PST,Max TemperatureF,Mean TemperatureF,Min TemperatureF,Max Dew PointF,MeanDew PointF,Min DewpointF,Max Humidity, Mean Humidity, Min Humidity, Max Sea Level PressureIn, Mean Sea Level PressureIn, Min Sea Level PressureIn, Max VisibilityMiles, Mean VisibilityMiles, Min VisibilityMiles, Max Wind SpeedMPH, Mean Wind SpeedMPH, Max Gust SpeedMPH,PrecipitationIn, CloudCover, Events, WindDirDegrees
2011-11-1,73,64,57,36,17,6,33,17,9,30.11,30.07,29.99,10,10,10,25,13,43,0.00,0,,354
2011-11-2,73,60,48,33,16,3,54,20,9,30.16,30.08,30.00,10,10,3,16,9,25,0.00,0,,356
2011-11-3,63,51,41,45,36,26,72,53,29,30.00,29.87,29.79,10,10,10,16,6,25,0.00,2,Rain,225
2011-11-4,61,48,36,38,34,30,89,60,33,29.92,29.88,29.82,10,10,10,10,4,17,0.00,0,,307
2011-11-5,57,46,36,48,40,30,100,78,40,30.01,29.94,29.90,10,8,3,9,3,,0.60,6,Rain,174
2011-11-6,57,48,41,48,45,41,100,89,64,30.15,29.99,29.90,10,8,2,7,2,,0.04,5,Rain,340
2011-11-7,62,50,37,44,40,35,100,78,37,30.27,30.22,30.16,10,10,8,6,3,,0.00,0,,225
2011-11-8,60,46,33,43,39,32,100,78,49,30.36,30.31,30.28,10,10,8,7,2,,0.00,0,,180
2011-11-9,62,48,35,42,39,33,97,71,44,30.33,30.25,30.18,10,10,7,7,2,,0.00,0,,355
2011-11-10,64,50,35,41,37,34,96,65,32,30.19,30.08,29.94,10,10,9,6,2,,0.00,0,,8
2011-11-11,55,48,42,48,43,34,100,78,47,29.91,29.84,29.79,10,8,3,10,2,,0.06,5,Rain,347
2011-11-12,64,56,48,49,47,44,97,79,52,29.96,29.90,29.85,10,8,3,10,4,,0.01,3,,333
2011-11-13,68,57,46,50,46,43,93,72,43,30.01,29.97,29.93,10,10,6,10,3,,0.00,1,,268
2011-11-14,64,54,42,49,47,41,97,80,52,30.06,30.02,29.95,10,9,6,12,6,20,0.00,4,,345
2011-11-15,70,56,41,46,42,37,96,67,30,30.19,30.14,30.06,10,10,7,8,2,,0.00,0,,336
2011-11-16,70,54,37,45,42,38,100,70,39,30.24,30.18,30.15,10,10,10,8,1,,0.00,0,,183
2011-11-17,66,52,39,52,46,39,97,78,52,30.18,30.09,30.01,10,10,10,16,4,21,0.00,2,,197
2011-11-18,55,50,46,47,44,38,89,80,68,30.04,29.98,29.91,10,10,6,12,7,17,0.03,5,Rain,210
2011-11-19,53,44,34,45,37,32,93,75,47,29.99,29.90,29.74,10,10,7,9,3,,0.28,3,Rain,165
2011-11-20,50,47,44,46,44,42,93,90,82,30.04,29.89,29.72,10,10,7,15,8,22,0.09,7,Rain,23
2011-11-21,57,46,36,46,42,36,100,85,59,30.27,30.18,30.06,10,9,0,7,2,,0.00,2,Fog,158
2011-11-22,60,48,37,47,41,37,100,93,55,30.30,30.24,30.11,10,4,0,7,1,,0.00,3,Fog,152
2011-11-23,54,46,39,48,43,37,100,92,77,30.09,29.96,29.86,8,4,0,5,1,,0.00,4,Fog,120
2011-11-24,53,50,46,52,49,46,100,97,86,30.23,30.07,29.88,10,3,0,5,1,,0.30,8,Fog-Rain,275
2011-11-25,55,48,41,50,47,40,100,94,80,30.39,30.31,30.22,10,7,0,8,2,,0.00,5,Fog,331
2011-11-26,57,46,36,48,44,36,100,95,69,30.44,30.39,30.35,10,5,0,7,1,,0.01,3,Fog,29
2011-11-27,55,46,37,50,45,37,100,96,75,30.39,30.33,30.30,10,5,0,6,1,,0.00,4,Fog,48
2011-11-28,60,50,39,50,43,37,100,93,67,30.32,30.28,30.22,10,5,0,6,0,,0.01,2,Fog,214
2011-11-29,54,44,35,46,40,36,100,96,75,30.30,30.23,30.19,10,3,0,5,1,,0.01,2,Fog,107
2011-11-30,64,52,39,43,36,28,100,72,27,30.27,30.23,30.19,10,5,0,25,6,43,0.01,2,Fog,353